Time;durP1;ratioP1;P1;durP2;ratioP2;P2;SDS_P1;SDS_P2;PMS_P1;PMS_P2;Temp;Humidity;BMP_temperature;BMP_pressure;BME280_temperature;BME280_humidity;BME280_pressure;Samples;Min_cycle;Max_cycle;Signal;HPM_P1;HPM_P2
2021/01/18 00:00:47;;;;;;;;;;;;;;;-0.20;93.16;99245.00;5053825;28;20023;-75
2021/01/18 00:03:13;;;;;;;;;;;;;;;-0.24;93.47;99249.75;5055422;28;19932;-76
2021/01/18 00:05:38;;;;;;;;;;;;;;;-0.23;93.35;99256.66;5057473;28;20362;-76
2021/01/18 00:08:03;;;;;;;;;;;;;;;-0.25;93.69;99252.56;5053366;28;20043;-74
2021/01/18 00:10:29;;;;;;;;;;;;;;;-0.23;93.68;99246.16;5055548;28;19928;-75
2021/01/18 00:12:55;;;;;;;;;;;;;;;-0.21;94.10;99252.06;5055096;28;19935;-73
2021/01/18 00:15:21;;;;;;;;;;;;;;;-0.23;94.49;99251.41;5053421;28;20383;-72
2021/01/18 00:17:47;;;;;;;;;;;;;;;-0.25;94.82;99248.13;5055169;28;19930;-72
2021/01/18 00:20:13;;;;;;;;;;;;;;;-0.21;94.73;99259.09;5053960;28;19924;-72
2021/01/18 00:22:42;;;;;;;;;;;;;;;-0.42;94.39;99224.75;5054107;28;19929;-73
2021/01/18 00:25:12;;;;;;;;;;;;;;;-0.22;94.52;99247.78;5053982;28;20374;-73
2021/01/18 00:27:38;;;;;;;;;;;;;;;-0.21;94.72;99257.28;5055165;28;21333;-73
2021/01/18 00:30:22;;;;;;;;;;;;;;;-0.17;94.80;99252.50;5064382;28;20054;-73
2021/01/18 00:32:48;;;;;;;;;;;;;;;-0.18;95.29;99254.34;5061607;28;19920;-74
2021/01/18 00:35:15;;;;;;;;;;;;;;;-0.13;95.41;99257.25;5063085;28;19917;-74
2021/01/18 00:37:49;;;;;;;;;;;;;;;-0.12;94.92;99260.69;5054432;28;21303;-73
2021/01/18 00:40:15;;;;;;;;;;;;;;;-0.10;94.04;99253.47;5056460;28;19935;-74
2021/01/18 00:42:41;;;;;;;;;;;;;;;-0.09;94.72;99258.53;5052722;28;19925;-73
2021/01/18 00:45:07;;;;;;;;;;;;;;;-0.08;94.20;99257.56;5053379;28;19929;-72
2021/01/18 00:47:32;;;;;;;;;;;;;;;-0.07;94.12;99259.19;5054580;28;19974;-73
2021/01/18 00:49:57;;;;;;;;;;;;;;;-0.06;94.63;99262.63;5054830;28;19924;-72
2021/01/18 00:52:22;;;;;;;;;;;;;;;-0.06;93.85;99262.63;5052640;28;19964;-71
2021/01/18 00:54:48;;;;;;;;;;;;;;;-0.03;93.76;99263.13;5050957;28;19978;-72
2021/01/18 00:57:13;;;;;;;;;;;;;;;-0.03;93.41;99262.31;5050000;28;20413;-72
2021/01/18 00:59:38;;;;;;;;;;;;;;;-0.02;93.71;99270.00;5056119;28;20313;-73
2021/01/18 01:02:03;;;;;;;;;;;;;;;-0.02;93.46;99272.63;5058111;28;19966;-74
2021/01/18 01:04:28;;;;;;;;;;;;;;;0.01;93.31;99268.84;5059535;28;19924;-73
2021/01/18 01:06:54;;;;;;;;;;;;;;;-0.02;93.92;99267.38;5058954;28;20035;-74
2021/01/18 01:09:19;;;;;;;;;;;;;;;-0.02;94.50;99267.38;5057596;28;19921;-74
2021/01/18 01:11:47;;;;;;;;;;;;;;;0.02;94.52;99264.41;5054518;28;20360;-73
2021/01/18 01:14:13;;;;;;;;;;;;;;;0.01;93.86;99268.84;5054983;28;20285;-72
2021/01/18 01:16:38;;;;;;;;;;;;;;;0.00;94.78;99262.78;5058165;28;19934;-72
2021/01/18 01:19:04;;;;;;;;;;;;;;;0.00;94.66;99268.00;5055993;28;20023;-73
2021/01/18 01:21:29;;;;;;;;;;;;;;;0.03;94.99;99271.28;5055601;28;19925;-73
2021/01/18 01:23:54;;;;;;;;;;;;;;;0.04;94.67;99276.38;5058179;28;20025;-74
2021/01/18 01:26:19;;;;;;;;;;;;;;;0.07;95.01;99275.22;5057661;28;20584;-73
2021/01/18 01:28:45;;;;;;;;;;;;;;;0.08;95.02;99275.03;5053085;28;20011;-74
2021/01/18 01:31:10;;;;;;;;;;;;;;;0.08;95.41;99277.66;5057138;28;19953;-72
2021/01/18 01:33:36;;;;;;;;;;;;;;;0.10;95.24;99278.31;5057022;28;19928;-73
2021/01/18 01:36:01;;;;;;;;;;;;;;;0.11;95.54;99279.94;5057984;28;19971;-74
2021/01/18 01:38:26;;;;;;;;;;;;;;;0.11;96.26;99271.28;5055936;28;19956;-72
2021/01/18 01:40:52;;;;;;;;;;;;;;;0.10;95.99;99278.31;5055957;28;21736;-73
2021/01/18 01:43:17;;;;;;;;;;;;;;;0.10;96.69;99272.25;5056865;28;22082;-75
2021/01/18 01:45:42;;;;;;;;;;;;;;;0.09;96.25;99275.88;5056769;28;20437;-70
2021/01/18 01:48:07;;;;;;;;;;;;;;;0.09;96.49;99281.91;5056108;28;20301;-75
2021/01/18 01:50:35;;;;;;;;;;;;;;;0.11;96.42;99281.75;5056449;28;20011;-72
2021/01/18 01:53:22;;;;;;;;;;;;;;;0.12;97.01;99280.75;5055928;28;19935;-72
2021/01/18 01:55:47;;;;;;;;;;;;;;;0.14;95.96;99281.41;5057671;28;21422;-74
2021/01/18 01:58:13;;;;;;;;;;;;;;;0.16;97.33;99284.66;5055995;28;19977;-71
2021/01/18 02:00:40;;;;;;;;;;;;;;;0.15;96.88;99283.06;5056455;28;19973;-72
2021/01/18 02:03:09;;;;;;;;;;;;;;;0.15;96.95;99276.00;5056022;28;19990;-73
2021/01/18 02:05:35;;;;;;;;;;;;;;;0.16;96.37;99282.88;5056408;28;19935;-72
2021/01/18 02:08:02;;;;;;;;;;;;;;;0.18;97.23;99282.69;5055321;28;19924;-72
2021/01/18 02:10:28;;;;;;;;;;;;;;;0.19;96.84;99281.72;5056609;28;19935;-73
2021/01/18 02:12:53;;;;;;;;;;;;;;;0.20;96.62;99283.38;5054487;28;19924;-74
2021/01/18 02:15:25;;;;;;;;;;;;;;;0.20;97.33;99284.16;5055460;28;19925;-71
2021/01/18 02:18:09;;;;;;;;;;;;;;;0.20;97.91;99280.75;5054454;28;19971;-72
2021/01/18 02:20:46;;;;;;;;;;;;;;;0.21;97.81;99277.13;5056975;28;19927;-73
2021/01/18 02:23:32;;;;;;;;;;;;;;;0.24;97.57;99284.66;5057591;28;20290;-72
2021/01/18 02:26:04;;;;;;;;;;;;;;;0.24;97.06;99287.28;5055975;28;19967;-72
2021/01/18 02:28:42;;;;;;;;;;;;;;;0.24;97.86;99285.44;5056686;28;19928;-72
2021/01/18 02:31:13;;;;;;;;;;;;;;;0.26;97.46;99278.25;5054983;28;19920;-72
2021/01/18 02:34:05;;;;;;;;;;;;;;;0.27;97.64;99282.50;5055941;28;19916;-73
2021/01/18 02:36:49;;;;;;;;;;;;;;;0.27;97.75;99284.28;5058460;28;19968;-71
2021/01/18 02:39:24;;;;;;;;;;;;;;;0.31;97.56;99302.16;5054648;28;19916;-71
2021/01/18 02:41:58;;;;;;;;;;;;;;;0.29;97.69;99293.63;5053678;28;20377;-72
2021/01/18 02:44:25;;;;;;;;;;;;;;;0.29;97.48;99287.56;5051721;28;19927;-72
2021/01/18 02:46:50;;;;;;;;;;;;;;;0.30;98.04;99289.22;5055404;28;19928;-71
2021/01/18 02:49:17;;;;;;;;;;;;;;;0.34;97.67;99285.25;5057841;28;19985;-73
2021/01/18 02:51:45;;;;;;;;;;;;;;;0.30;98.02;99289.22;5054030;28;19978;-73
2021/01/18 02:54:11;;;;;;;;;;;;;;;0.33;98.04;99296.75;5055583;28;20465;-73
2021/01/18 02:56:39;;;;;;;;;;;;;;;0.32;97.95;99297.72;5055233;28;19928;-74
2021/01/18 02:59:04;;;;;;;;;;;;;;;0.35;97.92;99300.03;5055489;28;20031;-74
2021/01/18 03:01:45;;;;;;;;;;;;;;;0.33;98.42;99297.53;5057139;28;19920;-74
2021/01/18 03:04:23;;;;;;;;;;;;;;;0.34;97.60;99296.56;5059811;28;19916;-74
2021/01/18 03:06:59;;;;;;;;;;;;;;;0.36;98.03;99301.63;5053627;28;19935;-72
2021/01/18 03:09:42;;;;;;;;;;;;;;;0.39;98.02;99301.31;5055404;28;19946;-74
2021/01/18 03:12:09;;;;;;;;;;;;;;;0.40;97.63;99305.53;5053582;28;19929;-73
2021/01/18 03:14:43;;;;;;;;;;;;;;;0.38;97.50;99308.34;5052624;28;19920;-73
2021/01/18 03:17:10;;;;;;;;;;;;;;;0.36;97.98;99301.63;5053944;28;19938;-72
2021/01/18 03:19:42;;;;;;;;;;;;;;;0.37;97.98;99304.06;5052580;28;19927;-72
2021/01/18 03:22:08;;;;;;;;;;;;;;;0.38;98.05;99303.09;5052809;28;19970;-71
2021/01/18 03:24:34;;;;;;;;;;;;;;;0.41;97.20;99301.94;5054778;28;19924;-74
2021/01/18 03:27:03;;;;;;;;;;;;;;;0.39;97.72;99303.94;5050937;28;19928;-72
2021/01/18 03:29:28;;;;;;;;;;;;;;;0.40;97.40;99303.75;5054927;28;19925;-73
2021/01/18 03:31:53;;;;;;;;;;;;;;;0.40;97.58;99301.13;5053703;28;19971;-74
2021/01/18 03:34:19;;;;;;;;;;;;;;;0.40;97.63;99295.88;5055290;28;20806;-73
2021/01/18 03:36:44;;;;;;;;;;;;;;;0.39;97.12;99299.50;5053198;28;19944;-73
2021/01/18 03:39:09;;;;;;;;;;;;;;;0.39;97.43;99303.94;5053073;28;19943;-73
2021/01/18 03:41:34;;;;;;;;;;;;;;;0.39;96.95;99306.56;5050633;28;19968;-73
2021/01/18 03:44:00;;;;;;;;;;;;;;;0.36;97.16;99301.63;5054349;28;19969;-72
2021/01/18 03:46:25;;;;;;;;;;;;;;;0.38;97.04;99302.28;5054536;28;20409;-72
2021/01/18 03:48:50;;;;;;;;;;;;;;;0.37;97.13;99308.53;5054507;28;19920;-74
2021/01/18 03:51:15;;;;;;;;;;;;;;;0.33;96.63;99310.66;5054151;28;19938;-75
2021/01/18 03:53:40;;;;;;;;;;;;;;;0.33;96.34;99315.13;5054223;28;19916;-74
2021/01/18 03:56:06;;;;;;;;;;;;;;;0.32;96.64;99318.72;5052592;28;20023;-74
2021/01/18 03:58:31;;;;;;;;;;;;;;;0.33;96.76;99310.66;5054403;28;20290;-73
2021/01/18 04:00:56;;;;;;;;;;;;;;;0.39;96.88;99309.19;5054132;28;19925;-73
2021/01/18 04:03:21;;;;;;;;;;;;;;;0.38;96.98;99310.16;5055700;28;20007;-74
2021/01/18 04:05:47;;;;;;;;;;;;;;;0.39;97.03;99314.44;5054607;28;19934;-73
2021/01/18 04:08:13;;;;;;;;;;;;;;;0.38;96.64;99310.16;5056053;28;19924;-73
2021/01/18 04:10:39;;;;;;;;;;;;;;;0.41;97.20;99309.81;5052712;28;19916;-72
2021/01/18 04:13:04;;;;;;;;;;;;;;;0.41;96.77;99301.94;5052077;28;20275;-73
2021/01/18 04:15:29;;;;;;;;;;;;;;;0.39;96.78;99298.69;5055035;28;20656;-73
2021/01/18 04:17:55;;;;;;;;;;;;;;;0.37;96.49;99290.94;5050295;28;19928;-73
2021/01/18 04:20:21;;;;;;;;;;;;;;;0.35;96.57;99302.66;5053941;28;19928;-72
2021/01/18 04:22:51;;;;;;;;;;;;;;;0.35;96.64;99294.78;5052785;28;19925;-75
2021/01/18 04:25:17;;;;;;;;;;;;;;;0.33;96.48;99300.16;5054490;28;19978;-72
2021/01/18 04:27:46;;;;;;;;;;;;;;;0.34;96.21;99301.81;5052784;28;19942;-73
2021/01/18 04:30:12;;;;;;;;;;;;;;;0.29;95.99;99298.06;5054814;28;19955;-73
2021/01/18 04:32:37;;;;;;;;;;;;;;;0.27;95.81;99303.50;5054127;28;20361;-74
2021/01/18 04:35:02;;;;;;;;;;;;;;;0.25;96.28;99305.47;5058697;28;20030;-74
2021/01/18 04:37:31;;;;;;;;;;;;;;;0.28;96.20;99305.13;5056994;28;19972;-74
2021/01/18 04:39:57;;;;;;;;;;;;;;;0.25;95.14;99302.84;5060297;28;19974;-74
2021/01/18 04:42:22;;;;;;;;;;;;;;;0.24;95.88;99306.44;5057029;28;19920;-74
2021/01/18 04:44:47;;;;;;;;;;;;;;;0.26;94.93;99301.03;5056726;28;20282;-73
2021/01/18 04:47:13;;;;;;;;;;;;;;;0.24;95.01;99301.19;5058443;28;20005;-73
2021/01/18 04:49:40;;;;;;;;;;;;;;;0.23;94.67;99304.00;5057044;28;19920;-73
2021/01/18 04:52:08;;;;;;;;;;;;;;;0.23;94.94;99301.38;5058827;28;19924;-73
2021/01/18 04:54:38;;;;;;;;;;;;;;;0.22;94.59;99300.56;5058265;28;19925;-73
2021/01/18 04:57:06;;;;;;;;;;;;;;;0.21;94.99;99303.34;5055895;28;19977;-73
2021/01/18 04:59:37;;;;;;;;;;;;;;;0.21;94.26;99308.59;5057864;28;19923;-75
2021/01/18 05:02:19;;;;;;;;;;;;;;;0.22;95.54;99307.63;5055059;28;19921;-71
2021/01/18 05:04:45;;;;;;;;;;;;;;;0.21;95.88;99308.59;5057099;28;19931;-73
2021/01/18 05:07:31;;;;;;;;;;;;;;;0.24;96.14;99305.66;5056774;28;21313;-73
2021/01/18 05:10:02;;;;;;;;;;;;;;;0.25;95.65;99313.34;5045871;28;19946;-73
2021/01/18 05:12:29;;;;;;;;;;;;;;;0.26;96.09;99314.16;5055964;28;19929;-72
2021/01/18 05:14:55;;;;;;;;;;;;;;;0.28;96.34;99312.19;5056451;28;20522;-72
2021/01/18 05:17:38;;;;;;;;;;;;;;;0.29;96.53;99308.56;5058077;28;19920;-72
2021/01/18 05:20:03;;;;;;;;;;;;;;;0.31;95.79;99317.06;5056669;28;19932;-72
2021/01/18 05:22:29;;;;;;;;;;;;;;;0.31;96.27;99311.81;5054654;28;19921;-72
2021/01/18 05:24:54;;;;;;;;;;;;;;;0.33;96.01;99310.66;5056407;28;19927;-73
2021/01/18 05:27:19;;;;;;;;;;;;;;;0.33;95.42;99310.66;5056287;28;19940;-72
2021/01/18 05:29:45;;;;;;;;;;;;;;;0.31;96.03;99310.03;5056674;28;19928;-73
2021/01/18 05:32:23;;;;;;;;;;;;;;;0.31;95.22;99311.81;5056055;28;20015;-73
2021/01/18 05:34:48;;;;;;;;;;;;;;;0.31;94.94;99324.94;5056699;28;20376;-75
2021/01/18 05:37:13;;;;;;;;;;;;;;;0.31;95.39;99322.31;5056876;28;19916;-73
2021/01/18 05:39:39;;;;;;;;;;;;;;;0.31;95.35;99323.16;5055856;28;19929;-75
2021/01/18 05:42:16;;;;;;;;;;;;;;;0.34;94.86;99319.38;5056644;28;19974;-73
2021/01/18 05:44:42;;;;;;;;;;;;;;;0.33;94.88;99325.63;5072769;23;19970;-77
2021/01/18 05:47:11;;;;;;;;;;;;;;;0.34;94.67;99322.00;5077470;28;19934;-77
2021/01/18 05:49:43;;;;;;;;;;;;;;;0.31;95.16;99323.16;5059617;28;19948;-77
2021/01/18 05:52:27;;;;;;;;;;;;;;;0.30;95.27;99329.41;5042525;28;19971;-77
2021/01/18 05:55:12;;;;;;;;;;;;;;;0.32;95.83;99324.81;5039683;28;19923;-77
2021/01/18 05:57:37;;;;;;;;;;;;;;;0.33;95.51;99325.63;5040376;28;19916;-77
2021/01/18 06:00:03;;;;;;;;;;;;;;;0.36;95.73;99325.25;5042169;28;19929;-77
2021/01/18 06:02:29;;;;;;;;;;;;;;;0.37;95.68;99329.53;5041923;28;19975;-77
2021/01/18 06:04:54;;;;;;;;;;;;;;;0.37;95.63;99332.97;5043162;28;19921;-77
2021/01/18 06:07:20;;;;;;;;;;;;;;;0.39;95.26;99340.69;5041304;28;20034;-77
2021/01/18 06:09:47;;;;;;;;;;;;;;;0.35;95.62;99342.81;5042570;28;20382;-77
2021/01/18 06:12:22;;;;;;;;;;;;;;;0.39;95.33;99345.94;5041249;28;20016;-77
2021/01/18 06:15:07;;;;;;;;;;;;;;;0.38;95.84;99339.03;5054575;28;20304;-78
2021/01/18 06:17:35;;;;;;;;;;;;;;;0.39;95.87;99338.06;5043623;28;20003;-79
2021/01/18 06:20:03;;;;;;;;;;;;;;;0.39;95.86;99332.81;5041539;28;20014;-79
2021/01/18 06:22:29;;;;;;;;;;;;;;;0.39;95.18;99336.25;5032112;28;19932;-78
2021/01/18 06:24:55;;;;;;;;;;;;;;;0.39;95.78;99341.50;5034659;28;21741;-78
2021/01/18 06:27:30;;;;;;;;;;;;;;;0.41;94.80;99347.41;5026058;28;19929;-78
2021/01/18 06:29:55;;;;;;;;;;;;;;;0.42;95.40;99342.94;5030090;28;19966;-78
2021/01/18 06:32:27;;;;;;;;;;;;;;;0.42;95.33;99348.19;5030740;28;19933;-77
2021/01/18 06:34:59;;;;;;;;;;;;;;;0.41;94.94;99350.03;5029876;28;19925;-78
2021/01/18 06:37:27;;;;;;;;;;;;;;;0.42;94.96;99350.81;5032323;28;19916;-79
2021/01/18 06:39:57;;;;;;;;;;;;;;;0.42;95.11;99353.44;5032612;28;19929;-78
2021/01/18 06:42:23;;;;;;;;;;;;;;;0.45;94.80;99353.13;5032653;28;19955;-79
2021/01/18 06:44:50;;;;;;;;;;;;;;;0.43;95.24;99355.94;5033573;28;19920;-78
2021/01/18 06:47:31;;;;;;;;;;;;;;;0.45;94.74;99361.81;5034703;28;19921;-79
2021/01/18 06:49:58;;;;;;;;;;;;;;;0.46;94.65;99366.06;5041660;28;19916;-78
2021/01/18 06:52:28;;;;;;;;;;;;;;;0.47;95.49;99359.00;5029346;28;19932;-78
2021/01/18 06:54:58;;;;;;;;;;;;;;;0.49;94.77;99370.16;5028884;28;19979;-78
2021/01/18 06:57:30;;;;;;;;;;;;;;;0.49;94.96;99368.38;5027741;28;20047;-78
2021/01/18 06:59:57;;;;;;;;;;;;;;;0.41;95.27;99355.28;5032545;28;19920;-79
2021/01/18 07:02:27;;;;;;;;;;;;;;;0.45;95.40;99366.25;5033041;28;19933;-79
2021/01/18 07:05:04;;;;;;;;;;;;;;;0.43;95.56;99368.22;5032899;28;19924;-78
2021/01/18 07:07:32;;;;;;;;;;;;;;;0.35;96.15;99363.03;5032384;28;19924;-78
2021/01/18 07:12:30;;;;;;;;;;;;;;;0.46;95.50;99373.16;5054941;22;20023;-73
2021/01/18 07:14:56;;;;;;;;;;;;;;;0.45;95.55;99374.13;5035296;28;19933;-74
2021/01/18 07:17:28;;;;;;;;;;;;;;;0.45;95.87;99366.25;5029338;28;19925;-74
2021/01/18 07:19:57;;;;;;;;;;;;;;;0.43;95.76;99371.69;5033985;28;19916;-73
2021/01/18 07:22:25;;;;;;;;;;;;;;;0.41;96.69;99367.59;5037118;28;19925;-74
2021/01/18 07:24:57;;;;;;;;;;;;;;;0.43;96.21;99376.94;5033106;28;19920;-73
2021/01/18 07:27:24;;;;;;;;;;;;;;;0.46;95.72;99378.41;5034819;28;19933;-74
2021/01/18 07:29:49;;;;;;;;;;;;;;;0.46;95.89;99373.16;5034217;28;19964;-73
2021/01/18 07:32:15;;;;;;;;;;;;;;;0.46;95.64;99373.94;5034624;28;21063;-72
2021/01/18 07:34:40;;;;;;;;;;;;;;;0.46;96.24;99375.78;5030576;28;19920;-73
2021/01/18 07:37:07;;;;;;;;;;;;;;;0.46;95.40;99373.16;5029143;28;19925;-72
2021/01/18 07:39:34;;;;;;;;;;;;;;;0.49;96.06;99383.28;5031408;28;19925;-75
2021/01/18 07:42:00;;;;;;;;;;;;;;;0.43;95.73;99368.22;5032720;28;19926;-74
2021/01/18 07:44:42;;;;;;;;;;;;;;;0.50;95.32;99377.06;5033010;28;19932;-72
2021/01/18 07:47:09;;;;;;;;;;;;;;;0.48;95.40;99376.41;5030926;28;20007;-72
2021/01/18 07:49:52;;;;;;;;;;;;;;;0.49;95.92;99391.16;5035112;28;19939;-74
2021/01/18 07:52:18;;;;;;;;;;;;;;;0.51;95.95;99392.63;5030917;28;19921;-73
2021/01/18 07:54:44;;;;;;;;;;;;;;;0.53;95.39;99384.59;5033861;28;20447;-72
2021/01/18 07:57:29;;;;;;;;;;;;;;;0.54;95.79;99386.22;5036595;28;20018;-75
2021/01/18 08:00:13;;;;;;;;;;;;;;;0.52;95.89;99388.22;5039005;28;19920;-75
2021/01/18 08:02:38;;;;;;;;;;;;;;;0.52;96.25;99394.28;5036697;28;19920;-74
2021/01/18 08:05:22;;;;;;;;;;;;;;;0.50;95.50;99391.00;5038795;28;19971;-72
2021/01/18 08:07:59;;;;;;;;;;;;;;;0.53;95.67;99387.22;5036343;28;19924;-72
2021/01/18 08:10:44;;;;;;;;;;;;;;;0.53;95.69;99390.66;5051755;28;20396;-72
2021/01/18 08:13:28;;;;;;;;;;;;;;;0.56;95.91;99392.13;5039612;28;19928;-72
2021/01/18 08:15:54;;;;;;;;;;;;;;;0.56;96.03;99389.50;5050210;28;19928;-72
2021/01/18 08:18:28;;;;;;;;;;;;;;;0.57;96.16;99388.50;5036697;28;20010;-72
2021/01/18 08:20:53;;;;;;;;;;;;;;;0.53;96.21;99390.66;5035580;28;19921;-72
2021/01/18 08:23:37;;;;;;;;;;;;;;;0.54;95.78;99391.47;5035537;28;19925;-73
2021/01/18 08:26:04;;;;;;;;;;;;;;;0.53;95.66;99398.53;5038675;28;19969;-72
2021/01/18 08:28:29;;;;;;;;;;;;;;;0.53;96.47;99384.59;5056526;28;19966;-72
2021/01/18 08:30:57;;;;;;;;;;;;;;;0.56;96.07;99385.06;5054107;28;19920;-72
2021/01/18 08:33:25;;;;;;;;;;;;;;;0.57;95.83;99372.75;5053160;28;19917;-72
2021/01/18 08:35:51;;;;;;;;;;;;;;;0.60;95.93;99382.91;5053567;28;20329;-72
2021/01/18 08:38:27;;;;;;;;;;;;;;;0.60;96.28;99373.22;5048305;28;19925;-72
2021/01/18 08:41:00;;;;;;;;;;;;;;;0.67;96.18;99387.31;5052427;28;19928;-73
2021/01/18 08:43:25;;;;;;;;;;;;;;;0.67;96.16;99381.25;5051540;28;19998;-73
2021/01/18 08:45:53;;;;;;;;;;;;;;;0.69;96.02;99384.50;5047003;28;19964;-73
2021/01/18 08:48:20;;;;;;;;;;;;;;;0.72;95.95;99379.72;5050993;28;19987;-74
2021/01/18 08:50:53;;;;;;;;;;;;;;;0.73;95.83;99384.00;5052557;28;19929;-74
2021/01/18 08:53:29;;;;;;;;;;;;;;;0.76;95.60;99391.50;5046660;28;19955;-74
2021/01/18 08:55:55;;;;;;;;;;;;;;;0.80;95.51;99385.94;5044031;28;20526;-73
2021/01/18 08:58:40;;;;;;;;;;;;;;;0.79;95.25;99385.09;5053174;28;19948;-72
2021/01/18 09:01:16;;;;;;;;;;;;;;;0.80;95.47;99381.50;5049577;28;19941;-72
2021/01/18 09:03:41;;;;;;;;;;;;;;;0.81;95.16;99385.75;5049846;28;19983;-72
2021/01/18 09:06:07;;;;;;;;;;;;;;;0.85;95.94;99383.59;5050443;28;19960;-73
2021/01/18 09:08:33;;;;;;;;;;;;;;;0.82;95.45;99382.13;5050659;28;19932;-73
2021/01/18 09:10:58;;;;;;;;;;;;;;;0.80;95.55;99380.66;5048218;28;20356;-74
2021/01/18 09:13:25;;;;;;;;;;;;;;;0.84;95.34;99384.59;5049575;28;19923;-73
2021/01/18 09:15:51;;;;;;;;;;;;;;;0.86;95.36;99382.59;5056764;28;19917;-74
2021/01/18 09:18:16;;;;;;;;;;;;;;;0.84;95.75;99382.78;5059957;28;19921;-73
2021/01/18 09:20:43;;;;;;;;;;;;;;;0.82;95.10;99381.31;5063899;28;19923;-73
2021/01/18 09:23:09;;;;;;;;;;;;;;;0.80;95.64;99383.31;5060779;28;19929;-74
2021/01/18 09:25:35;;;;;;;;;;;;;;;0.81;95.90;99377.06;5055370;28;20043;-73
2021/01/18 09:28:04;;;;;;;;;;;;;;;0.82;95.52;99374.25;5054189;28;19928;-72
2021/01/18 09:30:29;;;;;;;;;;;;;;;0.83;95.81;99377.72;5052540;28;19929;-72
2021/01/18 09:32:58;;;;;;;;;;;;;;;0.84;95.31;99381.97;5057389;28;20312;-72
2021/01/18 09:35:25;;;;;;;;;;;;;;;0.88;95.96;99384.06;5045118;28;19917;-74
2021/01/18 09:37:50;;;;;;;;;;;;;;;0.88;95.75;99381.44;5049584;28;19924;-72
2021/01/18 09:40:17;;;;;;;;;;;;;;;0.89;95.65;99385.72;5051819;28;19939;-72
2021/01/18 09:42:45;;;;;;;;;;;;;;;0.91;95.67;99369.78;5051995;28;19939;-73
2021/01/18 09:45:10;;;;;;;;;;;;;;;0.91;94.98;99377.66;5050901;28;19952;-72
2021/01/18 09:47:36;;;;;;;;;;;;;;;0.95;95.00;99379.75;5051503;28;19962;-72
2021/01/18 09:50:05;;;;;;;;;;;;;;;0.97;95.11;99369.06;5057814;28;19921;-73
2021/01/18 09:52:30;;;;;;;;;;;;;;;0.99;94.76;99364.44;5050293;28;19927;-74
2021/01/18 09:54:56;;;;;;;;;;;;;;;0.98;94.97;99366.28;5050879;28;19916;-74
2021/01/18 09:57:22;;;;;;;;;;;;;;;1.04;94.64;99364.75;5048891;28;19921;-74
2021/01/18 09:59:49;;;;;;;;;;;;;;;1.08;94.92;99379.19;5049991;28;19924;-74
2021/01/18 10:02:15;;;;;;;;;;;;;;;1.09;94.61;99368.47;5045710;28;19921;-72
2021/01/18 10:04:41;;;;;;;;;;;;;;;1.03;94.44;99368.34;5039751;28;19974;-72
2021/01/18 10:07:08;;;;;;;;;;;;;;;1.06;94.53;99373.28;5047996;28;20293;-73
2021/01/18 10:09:34;;;;;;;;;;;;;;;1.11;94.08;99360.44;5050827;28;19928;-72
2021/01/18 10:12:02;;;;;;;;;;;;;;;1.12;94.27;99359.44;5049861;28;19921;-72
2021/01/18 10:14:28;;;;;;;;;;;;;;;1.14;94.34;99354.81;5050661;28;19921;-73
2021/01/18 10:17:00;;;;;;;;;;;;;;;1.16;93.68;99356.28;5046172;28;20362;-73
2021/01/18 10:19:29;;;;;;;;;;;;;;;1.21;94.00;99358.38;5045477;28;20289;-73
2021/01/18 10:21:54;;;;;;;;;;;;;;;1.22;92.91;99344.25;5049925;28;19927;-72
2021/01/18 10:24:37;;;;;;;;;;;;;;;1.24;93.67;99342.25;5045529;28;20015;-72
2021/01/18 10:27:06;;;;;;;;;;;;;;;1.22;93.42;99349.50;5045302;28;19929;-73
2021/01/18 10:29:32;;;;;;;;;;;;;;;1.26;93.25;99345.53;5043577;28;20259;-72
2021/01/18 10:31:58;;;;;;;;;;;;;;;1.27;93.21;99349.78;5045498;28;20436;-72
2021/01/18 10:34:31;;;;;;;;;;;;;;;1.29;93.22;99340.72;5049604;28;19921;-72
2021/01/18 10:37:07;;;;;;;;;;;;;;;1.30;92.78;99339.75;5046555;28;19928;-73
2021/01/18 10:39:34;;;;;;;;;;;;;;;1.31;92.80;99333.47;5060909;28;20008;-73
2021/01/18 10:42:02;;;;;;;;;;;;;;;1.31;92.57;99330.06;5054680;28;19925;-72
2021/01/18 10:44:27;;;;;;;;;;;;;;;1.34;92.90;99327.03;5049756;28;19928;-72
2021/01/18 10:46:53;;;;;;;;;;;;;;;1.35;92.26;99313.75;5043479;28;19958;-72
2021/01/18 10:49:24;;;;;;;;;;;;;;;1.36;92.57;99315.38;5042737;28;19924;-73
2021/01/18 10:52:17;;;;;;;;;;;;;;;1.34;92.63;99321.78;5048508;28;19921;-73
2021/01/18 10:54:57;;;;;;;;;;;;;;;1.37;92.79;99321.44;5046516;28;20271;-73
2021/01/18 10:57:22;;;;;;;;;;;;;;;1.37;92.28;99316.19;5047508;28;19971;-72
2021/01/18 11:00:07;;;;;;;;;;;;;;;1.37;92.44;99317.00;5051564;28;20429;-72
2021/01/18 11:02:33;;;;;;;;;;;;;;;1.37;92.59;99309.13;5050360;28;20018;-73
2021/01/18 11:04:58;;;;;;;;;;;;;;;1.41;92.25;99309.56;5040519;28;20021;-73
2021/01/18 11:07:24;;;;;;;;;;;;;;;1.43;92.34;99305.78;5044602;28;19943;-73
2021/01/18 11:09:56;;;;;;;;;;;;;;;1.44;91.90;99301.34;5050876;28;19927;-74
2021/01/18 11:12:31;;;;;;;;;;;;;;;1.46;91.61;99305.41;5041709;28;19925;-73
2021/01/18 11:14:57;;;;;;;;;;;;;;;1.45;91.93;99305.59;5046906;28;20382;-73
2021/01/18 11:17:27;;;;;;;;;;;;;;;1.47;92.04;99311.47;5048555;28;19925;-73
2021/01/18 11:19:52;;;;;;;;;;;;;;;1.48;91.84;99308.69;5047448;28;20343;-73
2021/01/18 11:22:17;;;;;;;;;;;;;;;1.47;91.58;99306.22;5047167;28;19960;-73
2021/01/18 11:24:42;;;;;;;;;;;;;;;1.47;91.47;99303.59;5045257;28;19925;-73
2021/01/18 11:27:07;;;;;;;;;;;;;;;1.47;91.59;99309.66;5045696;28;19921;-72
2021/01/18 11:29:33;;;;;;;;;;;;;;;1.47;91.19;99307.03;5049885;28;19932;-74
2021/01/18 11:31:58;;;;;;;;;;;;;;;1.49;91.43;99309.47;5046599;28;19929;-74
2021/01/18 11:34:23;;;;;;;;;;;;;;;1.50;91.33;99304.06;5048295;28;19921;-73
2021/01/18 11:36:48;;;;;;;;;;;;;;;1.49;91.28;99297.16;5048234;28;19920;-73
2021/01/18 11:39:14;;;;;;;;;;;;;;;1.50;91.10;99301.44;5039714;28;19932;-73
2021/01/18 11:41:39;;;;;;;;;;;;;;;1.51;91.18;99289.06;5035759;28;19921;-74
2021/01/18 11:44:05;;;;;;;;;;;;;;;1.50;91.19;99290.91;5046822;28;19928;-74
2021/01/18 11:46:31;;;;;;;;;;;;;;;1.50;91.84;99298.81;5049391;28;19921;-73
2021/01/18 11:48:56;;;;;;;;;;;;;;;1.52;91.80;99286.28;5046630;28;19928;-73
2021/01/18 11:51:21;;;;;;;;;;;;;;;1.53;91.61;99279.19;5049478;28;19925;-72
2021/01/18 11:53:48;;;;;;;;;;;;;;;1.54;91.33;99283.47;5049474;28;20159;-73
2021/01/18 11:56:13;;;;;;;;;;;;;;;1.53;91.78;99277.38;5049527;28;20370;-73
2021/01/18 11:58:39;;;;;;;;;;;;;;;1.55;91.54;99276.41;5053099;28;19927;-72
2021/01/18 12:01:04;;;;;;;;;;;;;;;1.55;91.40;99282.47;5046428;28;19966;-73
2021/01/18 12:03:29;;;;;;;;;;;;;;;1.55;91.36;99276.41;5051450;28;19921;-74
2021/01/18 12:05:54;;;;;;;;;;;;;;;1.52;91.79;99275.78;5065521;28;19927;-73
2021/01/18 12:08:19;;;;;;;;;;;;;;;1.52;91.72;99274.94;5048014;28;19968;-72
2021/01/18 12:10:45;;;;;;;;;;;;;;;1.51;92.08;99270.66;5047068;28;19979;-73
2021/01/18 12:13:10;;;;;;;;;;;;;;;1.51;91.82;99262.78;5062947;28;19924;-73
2021/01/18 12:15:35;;;;;;;;;;;;;;;1.51;91.79;99260.97;5047118;28;19916;-73
2021/01/18 12:18:01;;;;;;;;;;;;;;;1.52;91.81;99252.09;5046735;28;19943;-73
2021/01/18 12:20:26;;;;;;;;;;;;;;;1.56;91.92;99251.72;5045829;28;19921;-73
2021/01/18 12:22:55;;;;;;;;;;;;;;;1.55;92.13;99247.47;5047298;28;19924;-74
2021/01/18 12:25:20;;;;;;;;;;;;;;;1.54;91.96;99249.28;5040786;28;20356;-76
2021/01/18 12:27:49;;;;;;;;;;;;;;;1.51;91.80;99241.72;5050117;28;19952;-73
2021/01/18 12:30:15;;;;;;;;;;;;;;;1.52;91.77;99240.75;5047681;28;19916;-73
2021/01/18 12:32:40;;;;;;;;;;;;;;;1.55;91.81;99227.25;5043371;28;19936;-74
2021/01/18 12:35:05;;;;;;;;;;;;;;;1.55;91.31;99234.31;5039737;28;19932;-73
2021/01/18 12:37:31;;;;;;;;;;;;;;;1.55;91.33;99221.16;5048700;28;19925;-73
2021/01/18 12:39:56;;;;;;;;;;;;;;;1.55;91.71;99221.16;5065470;28;20010;-74
2021/01/18 12:42:21;;;;;;;;;;;;;;;1.53;91.32;99219.53;5026948;28;19921;-74
2021/01/18 12:44:46;;;;;;;;;;;;;;;1.56;91.97;99217.53;5046131;28;19924;-73
2021/01/18 12:47:12;;;;;;;;;;;;;;;1.57;91.39;99200.75;5047904;28;19943;-73
2021/01/18 12:49:37;;;;;;;;;;;;;;;1.61;91.55;99194.13;5040787;28;19924;-73
2021/01/18 12:52:02;;;;;;;;;;;;;;;1.60;91.29;99200.38;5045528;28;19940;-76
2021/01/18 12:54:29;;;;;;;;;;;;;;;1.60;91.40;99205.63;5050222;28;19925;-73
2021/01/18 12:56:57;;;;;;;;;;;;;;;1.60;91.47;99195.94;5052197;28;20370;-74
2021/01/18 12:59:23;;;;;;;;;;;;;;;1.58;91.48;99191.84;5041534;28;20659;-74
2021/01/18 13:01:48;;;;;;;;;;;;;;;1.63;91.27;99197.38;5039257;28;19974;-77
2021/01/18 13:04:13;;;;;;;;;;;;;;;1.65;91.59;99193.59;5036896;28;21242;-73